Time;durP1;ratioP1;P1;durP2;ratioP2;P2;SDS_P1;SDS_P2;PMS_P1;PMS_P2;Temp;Humidity;BMP_temperature;BMP_pressure;BME280_temperature;BME280_humidity;BME280_pressure;Samples;Min_cycle;Max_cycle;Signal;HPM_P1;HPM_P2
2021/08/04 00:00:28;;;;;;;5.65;2.42;;;;;;;28.43;44.38;99427.00;4484613;32;33894;-61
2021/08/04 00:02:56;;;;;;;7.80;2.53;;;;;;;28.43;44.37;99423.41;4484347;32;34152;-61
2021/08/04 00:05:24;;;;;;;6.15;2.60;;;;;;;28.42;44.32;99425.34;4484364;32;34067;-62
2021/08/04 00:07:51;;;;;;;5.90;2.60;;;;;;;28.42;44.30;99421.78;4483242;32;34808;-61
2021/08/04 00:10:20;;;;;;;11.43;2.60;;;;;;;28.43;44.25;99420.69;4484436;32;33782;-61
2021/08/04 00:12:47;;;;;;;10.27;3.95;;;;;;;28.42;44.27;99421.78;4483602;32;34455;-61
2021/08/04 00:15:15;;;;;;;10.45;2.75;;;;;;;28.41;44.27;99423.69;4483211;32;33857;-61
2021/08/04 00:17:45;;;;;;;4.47;2.58;;;;;;;28.40;44.34;99416.56;4483181;32;34815;-61
2021/08/04 00:20:13;;;;;;;6.62;2.67;;;;;;;28.40;44.32;99413.81;4483015;32;33905;-61
2021/08/04 00:22:41;;;;;;;5.28;2.47;;;;;;;28.41;44.39;99414.66;4484370;32;32855;-61
2021/08/04 00:25:10;;;;;;;6.43;2.45;;;;;;;28.41;44.38;99414.66;4484334;32;35122;-61
2021/08/04 00:27:37;;;;;;;9.77;2.92;;;;;;;28.40;44.36;99411.09;4484185;32;34213;-61
2021/08/04 00:30:11;;;;;;;7.70;2.28;;;;;;;28.39;44.16;99408.59;4483677;32;33537;-61
2021/08/04 00:32:39;;;;;;;5.77;2.60;;;;;;;28.39;44.28;99412.16;4482882;32;33384;-61
2021/08/04 00:35:08;;;;;;;6.43;2.85;;;;;;;28.39;44.14;99405.84;4482753;32;32492;-61
2021/08/04 00:37:35;;;;;;;5.53;2.70;;;;;;;28.39;44.24;99397.63;4484491;32;34191;-61
2021/08/04 00:40:04;;;;;;;5.40;2.47;;;;;;;28.38;44.29;99394.03;4482857;32;33946;-61
2021/08/04 00:42:31;;;;;;;8.48;2.67;;;;;;;28.37;44.30;99389.66;4484022;32;33564;-61
2021/08/04 00:44:59;;;;;;;4.97;2.67;;;;;;;28.38;44.28;99393.22;4484014;32;33528;-62
2021/08/04 00:47:27;;;;;;;6.07;2.62;;;;;;;28.36;44.29;99388.00;4483754;32;34060;-61
2021/08/04 00:49:54;;;;;;;6.93;2.50;;;;;;;28.37;44.31;99403.38;4469896;32;33851;-61
2021/08/04 00:52:22;;;;;;;8.10;2.67;;;;;;;28.38;44.22;99399.53;4469784;32;32401;-61
2021/08/04 00:54:50;;;;;;;8.05;2.67;;;;;;;28.37;44.32;99388.84;4483891;32;34395;-61
2021/08/04 00:57:17;;;;;;;5.47;2.60;;;;;;;28.37;44.12;99395.16;4484148;32;34947;-61
2021/08/04 00:59:45;;;;;;;4.37;2.50;;;;;;;28.36;44.27;99395.44;4482824;32;34503;-61
2021/08/04 01:02:15;;;;;;;5.60;2.55;;;;;;;28.35;44.28;99394.59;4481890;32;34216;-61
2021/08/04 01:04:43;;;;;;;;;;;;;;;28.35;44.24;99399.25;4482877;32;34844;-61
2021/08/04 01:07:17;;;;;;;6.03;2.70;;;;;;;28.46;43.98;99395.44;4484207;32;34373;-62
2021/08/04 01:09:49;;;;;;;5.25;2.12;;;;;;;28.37;44.16;99392.41;4482563;32;34619;-61
2021/08/04 01:12:20;;;;;;;4.95;2.58;;;;;;;28.34;44.22;99381.94;4469731;32;31934;-61
2021/08/04 01:14:49;;;;;;;8.32;2.70;;;;;;;28.33;44.24;99379.47;4482701;32;34766;-61
2021/08/04 01:17:17;;;;;;;6.20;2.67;;;;;;;28.32;44.26;99373.16;4482465;32;34075;-61
2021/08/04 01:20:01;;;;;;;5.68;2.60;;;;;;;28.33;44.27;99379.47;4483198;32;33871;-61
2021/08/04 01:22:51;;;;;;;7.62;2.40;;;;;;;28.33;44.25;99374.78;4483577;32;32731;-61
2021/08/04 01:25:20;;;;;;;7.78;2.50;;;;;;;28.32;44.25;99377.81;4483563;32;34104;-61
2021/08/04 01:28:17;;;;;;;5.18;2.20;;;;;;;28.32;44.18;99380.56;4482576;32;33618;-61
2021/08/04 01:30:44;;;;;;;4.32;2.40;;;;;;;28.36;44.10;99373.47;4483655;32;34394;-61
2021/08/04 01:33:13;;;;;;;8.23;2.40;;;;;;;28.32;44.18;99369.59;4482105;32;33091;-61
2021/08/04 01:35:41;;;;;;;4.00;2.45;;;;;;;28.30;44.17;99375.31;4469537;32;34008;-61
2021/08/04 01:38:11;;;;;;;4.75;2.33;;;;;;;28.29;44.15;99367.38;4481596;32;35393;-61
2021/08/04 01:40:39;;;;;;;;;;;;;;;28.30;44.16;99369.00;4483668;32;33753;-61
2021/08/04 01:43:09;;;;;;;5.25;2.50;;;;;;;28.42;43.92;99372.38;4483312;32;34109;-61
2021/08/04 01:45:37;;;;;;;7.87;2.37;;;;;;;28.33;44.09;99366.56;4469003;32;33990;-61
2021/08/04 01:48:05;;;;;;;5.80;2.40;;;;;;;28.30;44.17;99367.09;4469104;32;35323;-61
2021/08/04 01:50:34;;;;;;;5.05;2.70;;;;;;;28.30;44.19;99371.75;4469031;32;34116;-61
2021/08/04 01:53:01;;;;;;;5.00;2.37;;;;;;;28.28;44.10;99369.28;4469043;32;34382;-61
2021/08/04 01:55:29;;;;;;;5.25;2.22;;;;;;;28.29;44.18;99372.84;4481445;32;34643;-61
2021/08/04 01:57:57;;;;;;;3.80;2.28;;;;;;;28.28;44.13;99372.03;4481885;32;34962;-61
2021/08/04 02:00:24;;;;;;;6.62;2.50;;;;;;;28.29;44.05;99381.09;4483007;32;33584;-61
2021/08/04 02:02:52;;;;;;;5.47;2.60;;;;;;;28.28;44.07;99385.75;4483028;32;32969;-61
2021/08/04 02:05:20;;;;;;;6.32;2.12;;;;;;;28.28;44.09;99383.00;4482881;32;33951;-61
2021/08/04 02:07:55;;;;;;;4.78;2.60;;;;;;;28.29;44.13;99387.41;4485287;32;34074;-62
2021/08/04 02:10:46;;;;;;;6.68;2.45;;;;;;;28.29;44.10;99389.31;4470709;32;34762;-61
2021/08/04 02:13:26;;;;;;;3.58;2.12;;;;;;;28.29;43.87;99386.56;4485536;32;33375;-61
2021/08/04 02:16:23;;;;;;;5.00;2.50;;;;;;;28.28;43.86;99390.41;4485403;32;33476;-61
2021/08/04 02:18:59;;;;;;;7.85;2.33;;;;;;;28.27;43.96;99386.84;4483987;32;34099;-61
2021/08/04 02:21:27;;;;;;;6.03;2.90;;;;;;;28.27;43.96;99391.53;4485145;32;33698;-61
2021/08/04 02:23:55;;;;;;;6.10;2.58;;;;;;;28.28;43.95;99390.41;4471032;32;33267;-61
2021/08/04 02:26:22;;;;;;;5.95;2.58;;;;;;;28.27;43.99;99397.00;4485439;32;33571;-61
2021/08/04 02:28:52;;;;;;;6.15;2.15;;;;;;;28.25;43.98;99389.03;4483126;32;33404;-60
2021/08/04 02:31:20;;;;;;;4.30;2.40;;;;;;;28.25;43.96;99393.69;4483983;32;34055;-61
2021/08/04 02:33:48;;;;;;;7.12;2.53;;;;;;;28.27;43.70;99405.22;4483547;32;34183;-61
2021/08/04 02:36:15;;;;;;;5.43;2.37;;;;;;;28.25;43.77;99400.00;4484112;32;33159;-61
2021/08/04 02:38:44;;;;;;;5.20;2.10;;;;;;;28.25;43.85;99405.47;4484128;32;34885;-61
2021/08/04 02:41:13;;;;;;;7.05;2.55;;;;;;;28.26;43.85;99400.81;4483909;32;33988;-61
2021/08/04 02:43:40;;;;;;;7.70;2.53;;;;;;;28.26;43.84;99398.06;4470980;32;33340;-61
2021/08/04 02:46:08;;;;;;;4.82;2.33;;;;;;;28.25;43.85;99388.19;4483043;32;34305;-61
2021/08/04 02:48:36;;;;;;;6.20;2.55;;;;;;;28.25;43.59;99390.94;4457928;32;35331;-61
2021/08/04 02:51:04;;;;;;;6.45;2.40;;;;;;;28.24;43.75;99392.88;4483796;32;33767;-61
2021/08/04 02:53:32;;;;;;;4.12;2.40;;;;;;;28.23;43.80;99396.72;4458089;32;31973;-61
2021/08/04 02:56:00;;;;;;;3.87;2.17;;;;;;;28.26;43.60;99406.31;4483513;32;33619;-62
2021/08/04 02:58:28;;;;;;;4.43;2.20;;;;;;;28.21;43.36;99448.25;4484698;32;33090;-61
2021/08/04 03:00:56;;;;;;;4.25;2.40;;;;;;;28.20;43.46;99469.38;4484968;32;33870;-61
2021/08/04 03:03:24;;;;;;;4.65;2.17;;;;;;;28.20;43.49;99463.91;4484461;32;34176;-61
2021/08/04 03:05:52;;;;;;;5.45;2.67;;;;;;;28.20;43.53;99463.91;4485067;32;33779;-61
2021/08/04 03:08:20;;;;;;;4.37;1.98;;;;;;;28.20;43.31;99466.63;4484783;32;34003;-61
2021/08/04 03:10:47;;;;;;;3.28;2.12;;;;;;;28.20;43.52;99457.59;4484990;32;33966;-61
2021/08/04 03:13:15;;;;;;;7.72;2.50;;;;;;;28.20;43.54;99450.19;4484916;32;33380;-61
2021/08/04 03:15:43;;;;;;;3.87;2.20;;;;;;;28.20;43.44;99452.09;4484943;32;34044;-61
2021/08/04 03:18:10;;;;;;;4.70;2.45;;;;;;;28.20;43.48;99443.88;4483948;32;34184;-61
2021/08/04 03:20:38;;;;;;;5.45;2.10;;;;;;;28.21;43.49;99442.78;4484743;32;33950;-61
2021/08/04 03:23:06;;;;;;;3.75;2.40;;;;;;;28.21;43.51;99442.78;4484865;32;34209;-61
2021/08/04 03:25:34;;;;;;;5.07;2.50;;;;;;;28.19;43.28;99429.34;4484635;32;33843;-61
2021/08/04 03:28:01;;;;;;;5.20;2.25;;;;;;;28.19;43.31;99434.81;4484760;32;33786;-61
2021/08/04 03:30:29;;;;;;;5.12;2.37;;;;;;;28.20;43.28;99438.38;4485006;32;34194;-61
2021/08/04 03:32:56;;;;;;;6.97;2.53;;;;;;;28.19;43.19;99434.00;4484398;32;34427;-62
2021/08/04 03:35:24;;;;;;;5.10;2.67;;;;;;;28.19;43.31;99431.25;4483840;32;34286;-61
2021/08/04 03:37:52;;;;;;;3.78;2.17;;;;;;;28.19;43.22;99431.25;4484670;32;34257;-61
2021/08/04 03:40:19;;;;;;;3.70;2.40;;;;;;;28.18;43.33;99426.88;4483310;32;33879;-61
2021/08/04 03:42:46;;;;;;;4.00;2.58;;;;;;;28.19;43.37;99428.50;4484642;32;33888;-61
2021/08/04 03:45:14;;;;;;;7.78;2.60;;;;;;;28.18;43.39;99422.19;4484616;32;33983;-61
2021/08/04 03:47:41;;;;;;;3.83;2.40;;;;;;;28.18;43.38;99427.69;4484399;32;34026;-61
2021/08/04 03:50:09;;;;;;;5.25;2.50;;;;;;;28.18;43.38;99435.91;4484538;32;33782;-61
2021/08/04 03:52:40;;;;;;;6.37;2.60;;;;;;;28.18;43.38;99435.91;4483910;32;32969;-61
2021/08/04 03:55:09;;;;;;;6.07;2.50;;;;;;;28.18;43.41;99429.59;4484554;32;34678;-61
2021/08/04 03:57:36;;;;;;;4.15;2.35;;;;;;;28.18;43.37;99438.66;4483389;32;34808;-61
2021/08/04 04:00:04;;;;;;;3.87;2.50;;;;;;;28.19;43.37;99444.97;4484278;32;34625;-61
2021/08/04 04:02:39;;;;;;;5.00;2.50;;;;;;;28.16;43.27;99440.81;4483295;32;32975;-62
2021/08/04 04:05:08;;;;;;;4.07;2.73;;;;;;;28.17;43.27;99455.41;4483233;32;33764;-64
2021/08/04 04:07:35;;;;;;;4.15;2.45;;;;;;;28.17;43.21;99463.62;4483140;32;34970;-63
2021/08/04 04:10:03;;;;;;;5.32;2.60;;;;;;;28.16;43.13;99462.78;4484464;32;33641;-62
2021/08/04 04:12:31;;;;;;;6.90;2.40;;;;;;;28.15;43.16;99461.13;4484463;32;33651;-61
2021/08/04 04:14:58;;;;;;;5.37;2.95;;;;;;;28.16;43.18;99468.25;4484451;32;34772;-61
2021/08/04 04:17:26;;;;;;;4.57;2.55;;;;;;;28.17;43.22;99477.34;4484365;32;35081;-61
2021/08/04 04:19:53;;;;;;;4.47;2.60;;;;;;;28.15;43.25;99474.84;4482585;32;32520;-61
2021/08/04 04:22:21;;;;;;;4.57;3.05;;;;;;;28.15;43.33;99472.09;4484302;32;33449;-61
2021/08/04 04:24:48;;;;;;;5.20;2.55;;;;;;;28.15;43.35;99463.03;4484302;32;33868;-61
2021/08/04 04:27:16;;;;;;;4.85;2.58;;;;;;;28.15;43.37;99463.88;4483011;32;34764;-61
2021/08/04 04:29:43;;;;;;;5.55;2.40;;;;;;;28.15;43.36;99463.88;4482226;32;33884;-61
2021/08/04 04:32:11;;;;;;;5.78;2.83;;;;;;;28.15;43.39;99452.91;4484253;32;34780;-61
2021/08/04 04:34:39;;;;;;;4.47;2.40;;;;;;;28.15;43.35;99452.06;4484196;32;34215;-61
2021/08/04 04:37:06;;;;;;;4.32;2.60;;;;;;;28.15;43.37;99461.13;4484068;32;33984;-62
2021/08/04 04:39:33;;;;;;;4.82;2.45;;;;;;;28.14;43.34;99464.97;4484316;32;33895;-62
2021/08/04 04:42:01;;;;;;;5.10;2.45;;;;;;;28.14;43.33;99464.97;4484026;32;33453;-61
2021/08/04 04:44:29;;;;;;;4.20;2.75;;;;;;;28.13;43.35;99463.31;4483840;32;33937;-61
2021/08/04 04:46:56;;;;;;;6.37;2.70;;;;;;;28.15;43.36;99452.91;4484088;32;35019;-61
2021/08/04 04:49:24;;;;;;;4.43;2.45;;;;;;;28.16;43.36;99456.47;4484041;32;33870;-62
2021/08/04 04:51:51;;;;;;;6.72;2.83;;;;;;;28.16;43.40;99459.22;4483894;32;33325;-61
2021/08/04 04:54:19;;;;;;;6.85;2.80;;;;;;;28.15;43.44;99463.03;4484249;32;34125;-61
2021/08/04 04:56:46;;;;;;;4.90;2.22;;;;;;;28.15;43.42;99460.31;4483859;32;35039;-61
2021/08/04 04:59:14;;;;;;;4.28;2.20;;;;;;;28.15;43.45;99468.53;4469495;32;33534;-61
2021/08/04 05:01:41;;;;;;;5.37;3.00;;;;;;;28.15;43.44;99466.63;4483824;32;33043;-61
2021/08/04 05:04:09;;;;;;;5.28;2.37;;;;;;;28.15;43.46;99468.53;4483680;32;33922;-61
2021/08/04 05:06:37;;;;;;;6.12;3.03;;;;;;;28.14;43.45;99472.38;4483467;32;34292;-61
2021/08/04 05:09:04;;;;;;;4.22;2.40;;;;;;;28.12;43.45;99478.13;4482679;32;33133;-61
2021/08/04 05:11:32;;;;;;;6.72;2.72;;;;;;;28.14;43.49;99484.16;4483624;32;33455;-61
2021/08/04 05:13:59;;;;;;;4.72;2.20;;;;;;;28.14;43.48;99488.84;4483332;32;33888;-61
2021/08/04 05:16:27;;;;;;;4.65;2.25;;;;;;;28.13;43.48;99485.28;4483748;32;34890;-61
2021/08/04 05:18:54;;;;;;;4.35;2.50;;;;;;;28.13;43.50;99500.91;4483243;32;33877;-64
2021/08/04 05:21:22;;;;;;;4.32;2.67;;;;;;;28.13;43.48;99500.91;4483287;32;33428;-62
2021/08/04 05:23:50;;;;;;;4.22;2.33;;;;;;;28.14;43.48;99495.16;4482055;32;34246;-62
2021/08/04 05:26:17;;;;;;;6.00;2.15;;;;;;;28.14;43.48;99494.31;4483316;32;34811;-63
2021/08/04 05:28:45;;;;;;;5.25;2.20;;;;;;;28.15;43.50;99498.72;4483172;32;34042;-63
2021/08/04 05:31:12;;;;;;;7.68;2.30;;;;;;;28.14;43.52;99495.16;4483376;32;33408;-64
2021/08/04 05:33:40;;;;;;;5.12;2.08;;;;;;;28.13;43.54;99501.72;4483514;32;34238;-64
2021/08/04 05:36:07;;;;;;;7.07;2.35;;;;;;;28.10;43.68;99496.75;4483035;32;34808;-62
2021/08/04 05:38:35;;;;;;;9.02;2.30;;;;;;;28.13;43.61;99506.37;4483406;32;34113;-63
2021/08/04 05:41:04;;;;;;;7.47;2.42;;;;;;;28.13;43.65;99515.44;4479752;32;33149;-61
2021/08/04 05:43:32;;;;;;;4.93;2.20;;;;;;;28.14;43.68;99514.34;4483850;32;34436;-62
2021/08/04 05:46:00;;;;;;;6.50;2.30;;;;;;;28.13;43.67;99504.47;4485005;32;34992;-61
2021/08/04 05:48:28;;;;;;;5.80;2.40;;;;;;;28.12;43.63;99505.56;4485247;32;33887;-61
2021/08/04 05:50:55;;;;;;;3.80;2.08;;;;;;;28.12;43.60;99508.31;4485056;32;34109;-61
2021/08/04 05:53:22;;;;;;;7.18;2.28;;;;;;;28.12;43.60;99504.72;4485301;32;34892;-61
2021/08/04 05:55:50;;;;;;;3.17;1.95;;;;;;;28.12;43.59;99502.81;4485218;32;33996;-61
2021/08/04 05:58:18;;;;;;;6.47;2.08;;;;;;;28.13;43.55;99500.91;4485279;32;34075;-61
2021/08/04 06:00:45;;;;;;;3.33;1.90;;;;;;;28.12;43.48;99494.59;4485212;32;34018;-63
2021/08/04 06:03:13;;;;;;;4.05;2.22;;;;;;;28.12;43.41;99497.34;4484925;32;34930;-61
2021/08/04 06:05:41;;;;;;;5.57;2.17;;;;;;;28.11;43.45;99497.59;4483860;32;34508;-61
2021/08/04 06:08:10;;;;;;;4.25;1.92;;;;;;;28.09;43.48;99492.38;4485194;32;34220;-61
2021/08/04 06:10:38;;;;;;;4.93;1.98;;;;;;;28.10;43.43;99495.94;4483778;32;33381;-61
2021/08/04 06:13:05;;;;;;;3.78;1.60;;;;;;;28.12;43.45;99491.84;4485207;32;33654;-62
2021/08/04 06:15:53;;;;;;;6.60;2.25;;;;;;;28.13;43.45;99495.41;4484967;32;33996;-60
2021/08/04 06:18:20;;;;;;;5.32;2.10;;;;;;;28.11;43.52;99492.09;4483952;32;34569;-61
2021/08/04 06:20:48;;;;;;;5.25;2.00;;;;;;;28.11;43.57;99497.59;4485047;32;33334;-61
2021/08/04 06:23:16;;;;;;;6.78;2.35;;;;;;;28.09;43.58;99495.12;4484911;32;33812;-60
2021/08/04 06:25:43;;;;;;;6.25;2.17;;;;;;;28.09;43.60;99495.12;4484851;32;34498;-61
2021/08/04 06:28:11;;;;;;;4.18;2.10;;;;;;;28.09;43.62;99492.38;4485012;32;34571;-63
2021/08/04 06:30:38;;;;;;;4.50;1.90;;;;;;;28.10;43.60;99496.75;4484863;32;34160;-62
2021/08/04 06:33:06;;;;;;;7.87;2.50;;;;;;;28.10;43.64;99488.53;4484994;32;33863;-62
2021/08/04 06:35:35;;;;;;;5.90;2.12;;;;;;;28.11;43.66;99494.84;4484849;32;35298;-61
2021/08/04 06:38:03;;;;;;;13.15;2.17;;;;;;;28.09;43.73;99486.88;4483514;32;34338;-61
2021/08/04 06:40:30;;;;;;;5.15;2.33;;;;;;;28.11;43.71;99492.91;4484905;32;33594;-62
2021/08/04 06:42:58;;;;;;;5.32;2.20;;;;;;;28.10;43.74;99485.78;4484918;32;33975;-62
2021/08/04 06:45:25;;;;;;;9.60;2.67;;;;;;;28.10;43.74;99487.72;4484644;32;35057;-62
2021/08/04 06:47:53;;;;;;;4.37;1.98;;;;;;;28.09;43.72;99495.12;4484922;32;33156;-62
2021/08/04 06:50:20;;;;;;;6.68;2.33;;;;;;;28.10;43.70;99496.75;4485154;32;33318;-63
2021/08/04 06:52:48;;;;;;;4.68;2.10;;;;;;;28.09;43.67;99495.12;4483113;32;33872;-63
2021/08/04 06:55:15;;;;;;;5.72;2.20;;;;;;;28.10;43.66;99496.75;4484904;32;34085;-63
2021/08/04 06:57:43;;;;;;;3.97;1.90;;;;;;;28.09;43.63;99492.38;4484569;32;34735;-62
2021/08/04 07:00:11;;;;;;;5.20;2.25;;;;;;;28.10;43.61;99498.69;4484550;32;33627;-62
2021/08/04 07:02:38;;;;;;;4.20;1.92;;;;;;;28.09;43.61;99503.34;4484750;32;34222;-62
2021/08/04 07:05:07;;;;;;;3.97;2.15;;;;;;;28.09;43.60;99503.34;4484790;32;33817;-63
2021/08/04 07:07:35;;;;;;;5.45;2.20;;;;;;;28.09;43.60;99499.78;4484869;32;33954;-62
2021/08/04 07:10:02;;;;;;;3.37;2.20;;;;;;;28.09;43.63;99505.25;4484658;32;33513;-62
2021/08/04 07:12:30;;;;;;;4.03;1.87;;;;;;;28.10;43.62;99509.66;4484735;32;34083;-62
2021/08/04 07:14:57;;;;;;;4.53;1.60;;;;;;;28.09;43.62;99505.25;4484552;32;34905;-63
2021/08/04 07:17:25;;;;;;;4.90;2.10;;;;;;;28.10;43.57;99504.16;4483441;32;32309;-61
2021/08/04 07:19:53;;;;;;;5.03;1.90;;;;;;;28.10;43.57;99506.91;4484705;32;33637;-62
2021/08/04 07:22:20;;;;;;;7.20;2.35;;;;;;;28.10;43.57;99501.44;4484574;32;33865;-62
2021/08/04 07:24:47;;;;;;;8.43;2.10;;;;;;;28.09;43.57;99497.84;4483323;32;34277;-62
2021/08/04 07:27:15;;;;;;;11.63;2.28;;;;;;;28.09;43.55;99495.12;4484610;32;33779;-62
2021/08/04 07:29:43;;;;;;;3.97;1.95;;;;;;;28.09;43.55;99492.38;4483108;32;33538;-63
2021/08/04 07:32:10;;;;;;;3.75;1.90;;;;;;;28.10;43.54;99488.53;4484480;32;33897;-62
2021/08/04 07:34:38;;;;;;;3.67;2.10;;;;;;;28.10;43.52;99485.78;4484306;32;34243;-62
2021/08/04 07:37:05;;;;;;;5.37;1.80;;;;;;;28.11;43.53;99495.66;4484337;32;33814;-61
2021/08/04 07:39:33;;;;;;;4.90;2.08;;;;;;;28.10;43.52;99483.03;4484586;32;33448;-62
2021/08/04 07:42:00;;;;;;;4.28;2.22;;;;;;;28.11;43.51;99487.44;4484457;32;33999;-62
2021/08/04 07:44:28;;;;;;;8.75;2.05;;;;;;;28.11;43.49;99481.13;4484644;32;33931;-62
2021/08/04 07:46:55;;;;;;;4.85;2.12;;;;;;;28.12;43.49;99485.50;4484391;32;34919;-63
2021/08/04 07:49:23;;;;;;;5.80;2.05;;;;;;;28.12;43.50;99497.34;4484486;32;33323;-62
2021/08/04 07:51:50;;;;;;;4.45;1.77;;;;;;;28.13;43.48;99495.41;4484172;32;34029;-62
2021/08/04 07:54:18;;;;;;;3.70;2.08;;;;;;;28.13;43.46;99495.41;4484673;32;34963;-63
2021/08/04 07:56:46;;;;;;;4.07;2.08;;;;;;;28.13;43.46;99498.16;4484452;32;34531;-63
2021/08/04 07:59:13;;;;;;;3.95;2.10;;;;;;;28.13;43.47;99500.91;4484190;32;34202;-62
2021/08/04 08:01:40;;;;;;;3.90;1.98;;;;;;;28.13;43.46;99509.97;4484362;32;34909;-61
2021/08/04 08:04:08;;;;;;;3.67;1.70;;;;;;;28.13;43.47;99509.97;4483386;32;35010;-63
2021/08/04 08:06:36;;;;;;;4.82;1.92;;;;;;;28.14;43.46;99505.28;4484053;32;33883;-63
2021/08/04 08:09:03;;;;;;;6.78;2.33;;;;;;;28.14;43.42;99514.34;4482788;32;32333;-63
2021/08/04 08:11:31;;;;;;;5.72;1.48;;;;;;;28.14;43.47;99508.84;4484273;32;34852;-62
2021/08/04 08:13:58;;;;;;;2.80;1.75;;;;;;;28.14;43.44;99508.03;4484199;32;33377;-62
2021/08/04 08:16:26;;;;;;;3.45;1.95;;;;;;;28.15;43.46;99506.94;4484270;32;34654;-62
2021/08/04 08:18:55;;;;;;;3.97;2.00;;;;;;;28.14;43.49;99506.13;4482924;32;34116;-62
2021/08/04 08:21:23;;;;;;;4.40;1.90;;;;;;;28.15;43.46;99505.00;4484318;32;34093;-62
2021/08/04 08:23:51;;;;;;;5.15;1.67;;;;;;;28.15;43.46;99507.75;4484208;32;33726;-63
2021/08/04 08:26:33;;;;;;;3.47;1.83;;;;;;;28.15;43.47;99509.69;4483914;32;34293;-61
2021/08/04 08:29:01;;;;;;;4.67;1.60;;;;;;;28.15;43.48;99507.75;4484138;32;33422;-63
2021/08/04 08:31:29;;;;;;;8.23;1.85;;;;;;;28.16;43.44;99506.66;4484029;32;33955;-63
2021/08/04 08:33:59;;;;;;;2.65;1.58;;;;;;;28.15;43.45;99502.28;4482735;32;34074;-62
2021/08/04 08:36:27;;;;;;;5.22;1.98;;;;;;;28.15;43.46;99505.00;4482733;32;33856;-63
2021/08/04 08:38:56;;;;;;;3.17;1.58;;;;;;;28.15;43.46;99513.25;4483992;32;33314;-62
2021/08/04 08:41:24;;;;;;;4.18;1.75;;;;;;;28.15;43.48;99513.25;4483612;32;35001;-62
2021/08/04 08:43:56;;;;;;;5.90;2.20;;;;;;;28.15;43.47;99510.50;4484023;32;33815;-62
2021/08/04 08:46:27;;;;;;;5.40;1.83;;;;;;;28.15;43.46;99507.75;4483678;32;34022;-62
2021/08/04 08:48:55;;;;;;;3.65;1.67;;;;;;;28.15;43.48;99502.28;4480856;32;33487;-65
2021/08/04 08:51:23;;;;;;;3.53;1.73;;;;;;;28.15;43.47;99507.75;4482533;32;34703;-62
2021/08/04 08:53:51;;;;;;;3.97;2.00;;;;;;;28.14;43.46;99500.63;4482275;32;34541;-65
2021/08/04 08:56:18;;;;;;;5.55;1.73;;;;;;;28.15;43.46;99506.94;4477161;32;34060;-63
2021/08/04 08:58:46;;;;;;;5.95;2.08;;;;;;;28.15;43.45;99513.25;4469785;32;34571;-63
2021/08/04 09:01:14;;;;;;;6.18;2.15;;;;;;;28.17;43.62;99508.34;4468131;32;33650;-63
2021/08/04 09:03:42;;;;;;;7.43;2.00;;;;;;;28.16;43.65;99505.84;4483515;32;35315;-62
2021/08/04 09:06:09;;;;;;;9.68;3.35;;;;;;;28.17;43.66;99505.59;4483171;32;34006;-63
2021/08/04 09:08:37;;;;;;;5.62;2.28;;;;;;;28.17;43.66;99508.34;4482630;32;33515;-64
2021/08/04 09:11:18;;;;;;;8.55;2.50;;;;;;;28.18;43.75;99504.50;4481544;32;33993;-63
2021/08/04 09:13:47;;;;;;;8.45;2.78;;;;;;;28.20;43.85;99505.03;4466703;32;34875;-64
2021/08/04 09:16:16;;;;;;;9.50;2.40;;;;;;;28.18;44.00;99498.19;4484734;32;33774;-63
2021/08/04 09:18:53;;;;;;;6.85;2.12;;;;;;;28.18;44.05;99500.94;4483991;32;33447;-63
2021/08/04 09:21:21;;;;;;;5.43;2.05;;;;;;;28.20;43.99;99496.81;4484004;32;34682;-62
2021/08/04 09:23:53;;;;;;;3.62;2.15;;;;;;;28.20;43.98;99498.72;4485804;32;34070;-62
2021/08/04 09:26:24;;;;;;;7.07;2.10;;;;;;;28.19;44.12;99500.66;4485433;32;34513;-63
2021/08/04 09:28:54;;;;;;;6.12;2.65;;;;;;;28.19;44.09;99499.84;4485201;32;33355;-63
2021/08/04 09:31:22;;;;;;;;;;;;;;;28.18;44.12;99495.44;4468866;32;34682;-63
2021/08/04 09:33:49;;;;;;;8.13;2.20;;;;;;;28.30;43.89;99495.22;4468554;32;34873;-64
2021/08/04 09:36:27;;;;;;;5.62;2.20;;;;;;;28.21;44.05;99493.00;4469511;32;33213;-63
2021/08/04 09:39:05;;;;;;;6.28;2.65;;;;;;;28.21;44.11;99492.16;4470026;32;34229;-62
2021/08/04 09:41:33;;;;;;;4.70;2.12;;;;;;;28.20;44.14;99496.00;4485415;32;33597;-64
2021/08/04 09:44:07;;;;;;;8.27;2.25;;;;;;;28.18;44.15;99496.28;4485304;32;34808;-65
2021/08/04 09:46:34;;;;;;;5.45;2.03;;;;;;;28.18;44.23;99490.78;4482971;32;33303;-63
2021/08/04 09:49:13;;;;;;;4.93;2.10;;;;;;;28.18;44.19;99495.44;4483965;32;33568;-63
2021/08/04 09:51:40;;;;;;;5.80;2.20;;;;;;;28.17;43.84;99489.13;4485276;32;34031;-65
2021/08/04 09:54:12;;;;;;;4.57;2.17;;;;;;;28.16;43.85;99490.19;4485195;32;34089;-63
2021/08/04 09:56:52;;;;;;;5.22;2.05;;;;;;;28.16;43.95;99490.19;4484197;32;33916;-65
2021/08/04 09:59:21;;;;;;;5.75;2.25;;;;;;;28.17;43.85;99491.88;4485089;32;33418;-65
2021/08/04 10:01:48;;;;;;;4.68;1.92;;;;;;;28.16;43.86;99492.94;4484071;32;33619;-65
2021/08/04 10:04:17;;;;;;;10.10;2.35;;;;;;;28.17;43.84;99502.03;4484982;32;34802;-63
2021/08/04 10:06:45;;;;;;;6.15;2.10;;;;;;;28.15;43.88;99499.53;4484462;32;34023;-64
2021/08/04 10:09:14;;;;;;;5.93;2.00;;;;;;;28.15;43.85;99496.78;4477818;32;33201;-62
2021/08/04 10:11:43;;;;;;;7.80;2.22;;;;;;;28.16;43.92;99494.88;4484492;32;33882;-63
2021/08/04 10:14:15;;;;;;;6.72;2.37;;;;;;;28.15;44.10;99499.53;4484892;32;34262;-62
2021/08/04 10:16:44;;;;;;;6.43;2.37;;;;;;;28.15;44.21;99491.31;4485168;32;36155;-64
2021/08/04 10:19:11;;;;;;;8.00;2.17;;;;;;;28.15;44.22;99494.03;4484651;32;33338;-63
2021/08/04 10:21:42;;;;;;;4.82;2.12;;;;;;;28.17;44.23;99489.13;4483684;32;34059;-63
2021/08/04 10:24:11;;;;;;;5.47;2.42;;;;;;;28.16;44.29;99483.91;4483704;32;33915;-63
2021/08/04 10:26:39;;;;;;;5.93;2.30;;;;;;;28.17;44.34;99496.53;4484295;32;33616;-65
2021/08/04 10:29:07;;;;;;;8.07;2.42;;;;;;;28.18;44.34;99488.03;4484020;32;34082;-63
2021/08/04 10:31:36;;;;;;;6.40;2.10;;;;;;;28.18;44.34;99490.78;4478581;32;33853;-65
2021/08/04 10:34:04;;;;;;;5.00;2.10;;;;;;;28.17;44.39;99491.06;4485304;32;34062;-64
2021/08/04 10:36:39;;;;;;;5.65;1.80;;;;;;;28.17;44.41;99483.66;4470717;32;34445;-65
2021/08/04 10:39:14;;;;;;;7.62;2.20;;;;;;;28.17;44.39;99480.91;4483839;32;33270;-65
2021/08/04 10:42:05;;;;;;;7.53;2.08;;;;;;;28.19;44.35;99483.37;4455499;32;34186;-63
2021/08/04 10:44:35;;;;;;;8.00;2.30;;;;;;;28.19;44.35;99486.94;4469176;32;34522;-65
2021/08/04 10:47:04;;;;;;;6.35;2.50;;;;;;;28.17;44.38;99482.81;4469331;32;33836;-64
2021/08/04 10:49:35;;;;;;;10.25;2.30;;;;;;;28.16;44.37;99483.91;4470971;32;34260;-64
2021/08/04 10:52:05;;;;;;;7.12;2.40;;;;;;;28.16;44.38;99479.22;4483662;32;33983;-64
2021/08/04 10:54:32;;;;;;;4.35;2.17;;;;;;;28.16;44.37;99478.41;4483497;32;33996;-63
2021/08/04 10:57:04;;;;;;;4.62;2.10;;;;;;;28.17;44.32;99482.81;4484775;32;34280;-63
2021/08/04 10:59:32;;;;;;;5.30;1.83;;;;;;;28.16;44.32;99476.50;4484705;32;33460;-65
2021/08/04 11:02:03;;;;;;;3.90;2.08;;;;;;;28.16;44.33;99472.91;4483626;32;33600;-64
2021/08/04 11:04:32;;;;;;;4.75;2.20;;;;;;;28.16;44.34;99479.22;4484276;32;33958;-65
2021/08/04 11:07:12;;;;;;;5.30;2.33;;;;;;;28.16;44.30;99470.19;4482766;32;33291;-64
2021/08/04 11:09:44;;;;;;;6.72;2.45;;;;;;;28.16;44.28;99471.00;4484870;32;33342;-65
2021/08/04 11:12:40;;;;;;;5.55;2.37;;;;;;;28.15;44.29;99477.59;4484724;32;34098;-63
2021/08/04 11:15:19;;;;;;;9.13;2.33;;;;;;;28.14;44.36;99481.44;4483171;31;33967;-64
2021/08/04 11:18:05;;;;;;;10.02;2.10;;;;;;;28.17;44.45;99474.59;4484885;32;33566;-65
2021/08/04 11:20:34;;;;;;;3.60;1.83;;;;;;;28.17;44.45;99475.41;4483769;32;33594;-64
2021/08/04 11:23:03;;;;;;;11.68;2.20;;;;;;;28.15;44.43;99469.34;4484590;32;33958;-62
2021/08/04 11:25:41;;;;;;;7.77;2.50;;;;;;;28.17;44.29;99463.62;4484750;32;33951;-64
2021/08/04 11:28:15;;;;;;;7.87;2.50;;;;;;;28.17;44.29;99469.13;4484668;32;34021;-64
2021/08/04 11:30:43;;;;;;;5.00;2.10;;;;;;;28.18;44.26;99463.34;4483361;32;33456;-65
2021/08/04 11:33:38;;;;;;;2.65;1.65;;;;;;;28.17;44.27;99458.97;4483189;32;34631;-64
2021/08/04 11:36:16;;;;;;;4.85;2.17;;;;;;;28.19;44.21;99458.69;4484539;32;33883;-63
2021/08/04 11:38:45;;;;;;;3.92;2.10;;;;;;;28.17;44.24;99449.91;4483131;32;34758;-64
2021/08/04 11:41:12;;;;;;;7.43;2.40;;;;;;;28.17;44.25;99456.22;4484573;32;33367;-64
2021/08/04 11:43:39;;;;;;;6.57;2.47;;;;;;;28.17;44.26;99445.25;4484948;32;34145;-64